sensor_id;sensor_type;location;lat;lon;timestamp;temperature;humidity
21807;DHT22;11065;50.786;7.840;2023-09-19T00:02:04;19.80;53.20
21807;DHT22;11065;50.786;7.840;2023-09-19T00:04:35;19.70;53.10
21807;DHT22;11065;50.786;7.840;2023-09-19T00:07:06;19.70;52.90
21807;DHT22;11065;50.786;7.840;2023-09-19T00:09:35;19.60;53.00
21807;DHT22;11065;50.786;7.840;2023-09-19T00:12:05;19.60;53.10
21807;DHT22;11065;50.786;7.840;2023-09-19T00:14:33;19.60;53.00
21807;DHT22;11065;50.786;7.840;2023-09-19T00:17:04;19.50;52.90
21807;DHT22;11065;50.786;7.840;2023-09-19T00:19:35;19.50;52.90
21807;DHT22;11065;50.786;7.840;2023-09-19T00:22:04;19.50;52.90
21807;DHT22;11065;50.786;7.840;2023-09-19T00:24:32;19.40;52.70
21807;DHT22;11065;50.786;7.840;2023-09-19T00:27:00;19.40;52.70
21807;DHT22;11065;50.786;7.840;2023-09-19T00:29:28;19.40;52.70
21807;DHT22;11065;50.786;7.840;2023-09-19T00:31:58;19.30;52.70
21807;DHT22;11065;50.786;7.840;2023-09-19T00:34:28;19.30;52.70
21807;DHT22;11065;50.786;7.840;2023-09-19T00:36:56;19.20;52.70
21807;DHT22;11065;50.786;7.840;2023-09-19T00:39:24;19.20;52.70
21807;DHT22;11065;50.786;7.840;2023-09-19T00:41:52;19.20;52.70
21807;DHT22;11065;50.786;7.840;2023-09-19T00:44:21;19.10;52.60
21807;DHT22;11065;50.786;7.840;2023-09-19T00:46:50;19.10;52.80
21807;DHT22;11065;50.786;7.840;2023-09-19T00:49:18;19.00;52.80
21807;DHT22;11065;50.786;7.840;2023-09-19T00:51:50;19.00;52.70
21807;DHT22;11065;50.786;7.840;2023-09-19T00:54:18;19.00;52.70
21807;DHT22;11065;50.786;7.840;2023-09-19T00:56:46;19.00;52.80
21807;DHT22;11065;50.786;7.840;2023-09-19T00:59:15;18.90;53.20
21807;DHT22;11065;50.786;7.840;2023-09-19T01:01:43;18.80;52.80
21807;DHT22;11065;50.786;7.840;2023-09-19T01:04:12;18.80;53.00
21807;DHT22;11065;50.786;7.840;2023-09-19T01:06:40;18.80;52.80
21807;DHT22;11065;50.786;7.840;2023-09-19T01:09:12;18.80;53.00
21807;DHT22;11065;50.786;7.840;2023-09-19T01:11:43;18.70;53.50
21807;DHT22;11065;50.786;7.840;2023-09-19T01:14:20;18.70;52.90
21807;DHT22;11065;50.786;7.840;2023-09-19T01:16:58;18.70;52.90
21807;DHT22;11065;50.786;7.840;2023-09-19T01:20:03;18.60;52.90
21807;DHT22;11065;50.786;7.840;2023-09-19T01:22:42;18.60;53.10
21807;DHT22;11065;50.786;7.840;2023-09-19T01:25:51;18.60;52.90
21807;DHT22;11065;50.786;7.840;2023-09-19T01:28:31;18.60;53.00
21807;DHT22;11065;50.786;7.840;2023-09-19T01:31:07;18.60;52.70
21807;DHT22;11065;50.786;7.840;2023-09-19T01:33:56;18.50;52.80
21807;DHT22;11065;50.786;7.840;2023-09-19T01:36:29;18.50;53.10
21807;DHT22;11065;50.786;7.840;2023-09-19T01:38:59;18.50;53.00
21807;DHT22;11065;50.786;7.840;2023-09-19T01:41:47;18.50;52.90
21807;DHT22;11065;50.786;7.840;2023-09-19T01:44:22;18.50;53.20
21807;DHT22;11065;50.786;7.840;2023-09-19T01:46:54;18.50;53.10
21807;DHT22;11065;50.786;7.840;2023-09-19T01:49:33;18.50;53.40
21807;DHT22;11065;50.786;7.840;2023-09-19T01:52:05;18.40;53.20
21807;DHT22;11065;50.786;7.840;2023-09-19T01:54:41;18.50;53.20
21807;DHT22;11065;50.786;7.840;2023-09-19T01:57:15;18.50;53.30
21807;DHT22;11065;50.786;7.840;2023-09-19T01:59:50;18.50;53.30
21807;DHT22;11065;50.786;7.840;2023-09-19T02:02:21;18.50;53.40
21807;DHT22;11065;50.786;7.840;2023-09-19T02:04:51;18.50;53.90
21807;DHT22;11065;50.786;7.840;2023-09-19T02:07:20;18.60;53.50
21807;DHT22;11065;50.786;7.840;2023-09-19T02:09:49;18.60;53.50
21807;DHT22;11065;50.786;7.840;2023-09-19T02:12:16;18.60;53.50
21807;DHT22;11065;50.786;7.840;2023-09-19T02:14:44;18.60;53.40
21807;DHT22;11065;50.786;7.840;2023-09-19T02:17:13;18.60;53.50
21807;DHT22;11065;50.786;7.840;2023-09-19T02:19:43;18.60;53.40
21807;DHT22;11065;50.786;7.840;2023-09-19T02:22:10;18.60;53.40
21807;DHT22;11065;50.786;7.840;2023-09-19T02:24:39;18.60;53.30
21807;DHT22;11065;50.786;7.840;2023-09-19T02:27:07;18.70;53.40
21807;DHT22;11065;50.786;7.840;2023-09-19T02:29:35;18.70;53.30
21807;DHT22;11065;50.786;7.840;2023-09-19T02:32:03;18.70;53.30
21807;DHT22;11065;50.786;7.840;2023-09-19T02:34:33;18.70;53.30
21807;DHT22;11065;50.786;7.840;2023-09-19T02:37:04;18.70;53.30
21807;DHT22;11065;50.786;7.840;2023-09-19T02:39:32;18.70;53.30
21807;DHT22;11065;50.786;7.840;2023-09-19T02:42:01;18.70;53.30
21807;DHT22;11065;50.786;7.840;2023-09-19T02:44:30;18.70;53.30
21807;DHT22;11065;50.786;7.840;2023-09-19T02:46:59;18.70;53.30
21807;DHT22;11065;50.786;7.840;2023-09-19T02:49:27;18.70;53.20
21807;DHT22;11065;50.786;7.840;2023-09-19T02:51:55;18.70;53.20
21807;DHT22;11065;50.786;7.840;2023-09-19T02:54:26;18.70;53.10
21807;DHT22;11065;50.786;7.840;2023-09-19T02:56:55;18.70;53.10
21807;DHT22;11065;50.786;7.840;2023-09-19T02:59:23;18.70;53.00
21807;DHT22;11065;50.786;7.840;2023-09-19T03:01:51;18.70;53.00
21807;DHT22;11065;50.786;7.840;2023-09-19T03:04:21;18.70;52.90
21807;DHT22;11065;50.786;7.840;2023-09-19T03:06:49;18.70;52.90
21807;DHT22;11065;50.786;7.840;2023-09-19T03:09:18;18.70;52.90
21807;DHT22;11065;50.786;7.840;2023-09-19T03:11:48;18.70;52.80
21807;DHT22;11065;50.786;7.840;2023-09-19T03:14:16;18.70;52.60
21807;DHT22;11065;50.786;7.840;2023-09-19T03:16:47;18.70;52.60
21807;DHT22;11065;50.786;7.840;2023-09-19T03:19:15;18.70;52.60
21807;DHT22;11065;50.786;7.840;2023-09-19T03:21:44;18.70;52.50
21807;DHT22;11065;50.786;7.840;2023-09-19T03:24:12;18.70;52.50
21807;DHT22;11065;50.786;7.840;2023-09-19T03:26:40;18.70;52.40
21807;DHT22;11065;50.786;7.840;2023-09-19T03:29:10;18.70;52.40
21807;DHT22;11065;50.786;7.840;2023-09-19T03:31:38;18.70;52.40
21807;DHT22;11065;50.786;7.840;2023-09-19T03:34:08;18.70;52.40
21807;DHT22;11065;50.786;7.840;2023-09-19T03:36:36;18.70;52.30
21807;DHT22;11065;50.786;7.840;2023-09-19T03:39:05;18.70;52.30
21807;DHT22;11065;50.786;7.840;2023-09-19T03:41:33;18.70;52.20
21807;DHT22;11065;50.786;7.840;2023-09-19T03:44:04;18.70;52.20
21807;DHT22;11065;50.786;7.840;2023-09-19T03:46:34;18.60;52.10
21807;DHT22;11065;50.786;7.840;2023-09-19T03:49:04;18.60;52.00
21807;DHT22;11065;50.786;7.840;2023-09-19T03:51:32;18.60;52.00
21807;DHT22;11065;50.786;7.840;2023-09-19T03:54:01;18.60;52.00
21807;DHT22;11065;50.786;7.840;2023-09-19T03:56:31;18.50;52.00
21807;DHT22;11065;50.786;7.840;2023-09-19T03:58:59;18.50;52.00
21807;DHT22;11065;50.786;7.840;2023-09-19T04:01:27;18.50;52.00
21807;DHT22;11065;50.786;7.840;2023-09-19T04:03:59;18.40;52.00
21807;DHT22;11065;50.786;7.840;2023-09-19T04:06:36;18.40;52.10
21807;DHT22;11065;50.786;7.840;2023-09-19T04:09:05;18.40;52.10
21807;DHT22;11065;50.786;7.840;2023-09-19T04:11:33;18.40;52.10
21807;DHT22;11065;50.786;7.840;2023-09-19T04:14:03;18.30;52.10
21807;DHT22;11065;50.786;7.840;2023-09-19T04:16:31;18.30;52.10
21807;DHT22;11065;50.786;7.840;2023-09-19T04:19:01;18.30;52.10
21807;DHT22;11065;50.786;7.840;2023-09-19T04:21:29;18.20;52.10
21807;DHT22;11065;50.786;7.840;2023-09-19T04:23:57;18.20;52.10
21807;DHT22;11065;50.786;7.840;2023-09-19T04:26:25;18.10;52.10
21807;DHT22;11065;50.786;7.840;2023-09-19T04:28:53;18.10;52.10
21807;DHT22;11065;50.786;7.840;2023-09-19T04:31:23;18.10;52.10
21807;DHT22;11065;50.786;7.840;2023-09-19T04:33:51;18.00;52.10
21807;DHT22;11065;50.786;7.840;2023-09-19T04:36:21;18.00;52.10
21807;DHT22;11065;50.786;7.840;2023-09-19T04:39:01;18.00;52.20
21807;DHT22;11065;50.786;7.840;2023-09-19T04:41:31;17.90;52.20
21807;DHT22;11065;50.786;7.840;2023-09-19T04:43:59;17.90;52.20
21807;DHT22;11065;50.786;7.840;2023-09-19T04:46:27;17.80;52.20
21807;DHT22;11065;50.786;7.840;2023-09-19T04:48:55;17.80;52.40
21807;DHT22;11065;50.786;7.840;2023-09-19T04:51:24;17.80;52.40
21807;DHT22;11065;50.786;7.840;2023-09-19T04:53:55;17.70;52.30
21807;DHT22;11065;50.786;7.840;2023-09-19T04:56:23;17.70;52.40
21807;DHT22;11065;50.786;7.840;2023-09-19T04:58:51;17.70;52.40
21807;DHT22;11065;50.786;7.840;2023-09-19T05:01:20;17.70;52.60
21807;DHT22;11065;50.786;7.840;2023-09-19T05:03:49;17.60;52.90
21807;DHT22;11065;50.786;7.840;2023-09-19T05:06:19;17.60;52.50
21807;DHT22;11065;50.786;7.840;2023-09-19T05:08:49;17.60;52.60
21807;DHT22;11065;50.786;7.840;2023-09-19T05:11:19;17.60;52.60
21807;DHT22;11065;50.786;7.840;2023-09-19T05:13:47;17.60;52.60
21807;DHT22;11065;50.786;7.840;2023-09-19T05:16:16;17.50;52.70
21807;DHT22;11065;50.786;7.840;2023-09-19T05:18:44;17.60;52.60
21807;DHT22;11065;50.786;7.840;2023-09-19T05:21:12;17.50;52.70
21807;DHT22;11065;50.786;7.840;2023-09-19T05:23:40;17.50;52.80
21807;DHT22;11065;50.786;7.840;2023-09-19T05:26:10;17.50;52.80
21807;DHT22;11065;50.786;7.840;2023-09-19T05:28:39;17.50;52.80
21807;DHT22;11065;50.786;7.840;2023-09-19T05:31:07;17.50;52.80
21807;DHT22;11065;50.786;7.840;2023-09-19T05:33:35;17.50;52.90
21807;DHT22;11065;50.786;7.840;2023-09-19T05:36:03;17.50;52.80
21807;DHT22;11065;50.786;7.840;2023-09-19T05:38:31;17.50;52.90
21807;DHT22;11065;50.786;7.840;2023-09-19T05:40:59;17.40;52.80
21807;DHT22;11065;50.786;7.840;2023-09-19T05:43:29;17.40;52.70
21807;DHT22;11065;50.786;7.840;2023-09-19T05:45:59;17.40;52.80
21807;DHT22;11065;50.786;7.840;2023-09-19T05:48:27;17.40;52.80
21807;DHT22;11065;50.786;7.840;2023-09-19T05:50:55;17.40;52.90
21807;DHT22;11065;50.786;7.840;2023-09-19T05:53:23;17.40;52.90
21807;DHT22;11065;50.786;7.840;2023-09-19T05:55:52;17.40;52.90
21807;DHT22;11065;50.786;7.840;2023-09-19T05:58:22;17.40;52.90
21807;DHT22;11065;50.786;7.840;2023-09-19T06:00:51;17.50;53.00
21807;DHT22;11065;50.786;7.840;2023-09-19T06:03:19;17.50;53.10
21807;DHT22;11065;50.786;7.840;2023-09-19T06:05:47;17.50;53.10
21807;DHT22;11065;50.786;7.840;2023-09-19T06:08:16;17.50;53.10
21807;DHT22;11065;50.786;7.840;2023-09-19T06:10:44;17.50;53.10
21807;DHT22;11065;50.786;7.840;2023-09-19T06:13:13;17.50;53.10
21807;DHT22;11065;50.786;7.840;2023-09-19T06:15:41;17.50;53.10
21807;DHT22;11065;50.786;7.840;2023-09-19T06:18:12;17.60;53.20
21807;DHT22;11065;50.786;7.840;2023-09-19T06:20:46;17.60;53.20
21807;DHT22;11065;50.786;7.840;2023-09-19T06:23:15;17.60;53.20
21807;DHT22;11065;50.786;7.840;2023-09-19T06:25:43;17.60;53.20
21807;DHT22;11065;50.786;7.840;2023-09-19T06:28:11;17.60;53.20
21807;DHT22;11065;50.786;7.840;2023-09-19T06:30:40;17.70;53.30
21807;DHT22;11065;50.786;7.840;2023-09-19T06:33:08;17.70;53.30
21807;DHT22;11065;50.786;7.840;2023-09-19T06:35:39;17.70;53.30
21807;DHT22;11065;50.786;7.840;2023-09-19T06:38:08;17.80;53.40
21807;DHT22;11065;50.786;7.840;2023-09-19T06:40:38;17.70;53.30
21807;DHT22;11065;50.786;7.840;2023-09-19T06:43:06;17.80;53.30
21807;DHT22;11065;50.786;7.840;2023-09-19T06:45:35;17.80;53.00
21807;DHT22;11065;50.786;7.840;2023-09-19T06:48:04;17.80;53.10
21807;DHT22;11065;50.786;7.840;2023-09-19T06:50:32;17.80;53.20
21807;DHT22;11065;50.786;7.840;2023-09-19T06:53:04;17.80;53.20
21807;DHT22;11065;50.786;7.840;2023-09-19T06:55:32;17.90;53.20
21807;DHT22;11065;50.786;7.840;2023-09-19T06:58:01;17.90;53.20
21807;DHT22;11065;50.786;7.840;2023-09-19T07:00:29;17.90;53.10
21807;DHT22;11065;50.786;7.840;2023-09-19T07:02:59;18.00;53.10
21807;DHT22;11065;50.786;7.840;2023-09-19T07:05:31;18.00;53.10
21807;DHT22;11065;50.786;7.840;2023-09-19T07:07:59;18.00;53.00
21807;DHT22;11065;50.786;7.840;2023-09-19T07:10:29;18.00;53.00
21807;DHT22;11065;50.786;7.840;2023-09-19T07:12:58;18.10;53.10
21807;DHT22;11065;50.786;7.840;2023-09-19T07:15:27;18.10;53.00
21807;DHT22;11065;50.786;7.840;2023-09-19T07:17:55;18.20;52.90
21807;DHT22;11065;50.786;7.840;2023-09-19T07:20:24;18.20;52.80
21807;DHT22;11065;50.786;7.840;2023-09-19T07:22:53;18.30;52.80
21807;DHT22;11065;50.786;7.840;2023-09-19T07:25:22;18.30;52.60
21807;DHT22;11065;50.786;7.840;2023-09-19T07:27:52;18.30;52.70
21807;DHT22;11065;50.786;7.840;2023-09-19T07:30:20;18.40;52.60
21807;DHT22;11065;50.786;7.840;2023-09-19T07:32:48;18.40;52.60
21807;DHT22;11065;50.786;7.840;2023-09-19T07:35:16;18.50;52.60
21807;DHT22;11065;50.786;7.840;2023-09-19T07:37:45;18.50;52.30
21807;DHT22;11065;50.786;7.840;2023-09-19T07:40:16;18.60;52.20
21807;DHT22;11065;50.786;7.840;2023-09-19T07:42:44;18.60;52.20
21807;DHT22;11065;50.786;7.840;2023-09-19T07:45:14;18.70;52.20
21807;DHT22;11065;50.786;7.840;2023-09-19T07:47:44;18.70;52.10
21807;DHT22;11065;50.786;7.840;2023-09-19T07:50:13;18.80;52.30
21807;DHT22;11065;50.786;7.840;2023-09-19T07:52:42;18.80;52.10
21807;DHT22;11065;50.786;7.840;2023-09-19T07:55:10;18.90;52.00
21807;DHT22;11065;50.786;7.840;2023-09-19T07:57:42;19.00;51.90
21807;DHT22;11065;50.786;7.840;2023-09-19T08:00:11;19.00;51.40
21807;DHT22;11065;50.786;7.840;2023-09-19T08:02:41;19.10;51.50
21807;DHT22;11065;50.786;7.840;2023-09-19T08:05:10;19.10;52.20
21807;DHT22;11065;50.786;7.840;2023-09-19T08:07:43;19.20;51.60
21807;DHT22;11065;50.786;7.840;2023-09-19T08:10:12;19.30;51.50
21807;DHT22;11065;50.786;7.840;2023-09-19T08:12:40;19.30;51.70
21807;DHT22;11065;50.786;7.840;2023-09-19T08:15:13;19.40;51.40
21807;DHT22;11065;50.786;7.840;2023-09-19T08:17:43;19.50;50.90
21807;DHT22;11065;50.786;7.840;2023-09-19T08:20:11;19.60;50.90
21807;DHT22;11065;50.786;7.840;2023-09-19T08:22:43;19.60;50.70
21807;DHT22;11065;50.786;7.840;2023-09-19T08:25:14;19.70;51.00
21807;DHT22;11065;50.786;7.840;2023-09-19T08:27:44;19.70;50.90
21807;DHT22;11065;50.786;7.840;2023-09-19T08:30:15;19.90;51.20
21807;DHT22;11065;50.786;7.840;2023-09-19T08:32:44;20.00;50.20
21807;DHT22;11065;50.786;7.840;2023-09-19T08:35:13;20.00;50.80
21807;DHT22;11065;50.786;7.840;2023-09-19T08:37:42;20.20;50.90
21807;DHT22;11065;50.786;7.840;2023-09-19T08:40:12;20.40;51.00
21807;DHT22;11065;50.786;7.840;2023-09-19T08:42:49;20.50;50.60
21807;DHT22;11065;50.786;7.840;2023-09-19T08:45:17;20.70;50.30
21807;DHT22;11065;50.786;7.840;2023-09-19T08:47:53;20.90;50.00
21807;DHT22;11065;50.786;7.840;2023-09-19T08:50:27;21.00;49.50
21807;DHT22;11065;50.786;7.840;2023-09-19T08:52:57;21.10;49.90
21807;DHT22;11065;50.786;7.840;2023-09-19T08:55:28;21.20;50.00
21807;DHT22;11065;50.786;7.840;2023-09-19T08:58:00;21.40;49.80
21807;DHT22;11065;50.786;7.840;2023-09-19T09:00:28;21.50;48.90
21807;DHT22;11065;50.786;7.840;2023-09-19T09:02:59;21.70;49.90
21807;DHT22;11065;50.786;7.840;2023-09-19T09:05:29;21.90;49.40
21807;DHT22;11065;50.786;7.840;2023-09-19T09:07:59;22.20;48.90
21807;DHT22;11065;50.786;7.840;2023-09-19T09:10:27;22.40;49.80
21807;DHT22;11065;50.786;7.840;2023-09-19T09:12:55;22.70;49.70
21807;DHT22;11065;50.786;7.840;2023-09-19T09:15:25;23.10;48.90
21807;DHT22;11065;50.786;7.840;2023-09-19T09:17:53;23.40;48.30
21807;DHT22;11065;50.786;7.840;2023-09-19T09:20:23;23.60;47.30
21807;DHT22;11065;50.786;7.840;2023-09-19T09:22:52;23.80;47.70
21807;DHT22;11065;50.786;7.840;2023-09-19T09:25:22;24.00;46.70
21807;DHT22;11065;50.786;7.840;2023-09-19T09:28:00;24.20;45.90
21807;DHT22;11065;50.786;7.840;2023-09-19T09:30:35;24.30;44.70
21807;DHT22;11065;50.786;7.840;2023-09-19T09:33:08;24.30;45.10
21807;DHT22;11065;50.786;7.840;2023-09-19T09:35:49;24.40;44.50
21807;DHT22;11065;50.786;7.840;2023-09-19T09:38:20;24.40;44.50
21807;DHT22;11065;50.786;7.840;2023-09-19T09:40:49;24.50;45.00
21807;DHT22;11065;50.786;7.840;2023-09-19T09:43:32;24.60;45.70
21807;DHT22;11065;50.786;7.840;2023-09-19T09:46:12;24.70;45.10
21807;DHT22;11065;50.786;7.840;2023-09-19T09:49:00;24.90;44.30
21807;DHT22;11065;50.786;7.840;2023-09-19T09:52:01;25.10;44.80
21807;DHT22;11065;50.786;7.840;2023-09-19T09:54:35;25.30;44.20
21807;DHT22;11065;50.786;7.840;2023-09-19T09:57:06;25.50;44.90
21807;DHT22;11065;50.786;7.840;2023-09-19T09:59:49;25.60;44.60
21807;DHT22;11065;50.786;7.840;2023-09-19T10:02:24;25.90;43.80
21807;DHT22;11065;50.786;7.840;2023-09-19T10:04:56;26.20;44.10
21807;DHT22;11065;50.786;7.840;2023-09-19T10:07:41;26.30;43.80
21807;DHT22;11065;50.786;7.840;2023-09-19T10:10:30;26.30;42.70
21807;DHT22;11065;50.786;7.840;2023-09-19T10:13:06;26.30;42.30
21807;DHT22;11065;50.786;7.840;2023-09-19T10:15:39;26.20;43.50
21807;DHT22;11065;50.786;7.840;2023-09-19T10:18:10;26.10;42.30
21807;DHT22;11065;50.786;7.840;2023-09-19T10:20:45;26.00;42.30
21807;DHT22;11065;50.786;7.840;2023-09-19T10:23:17;25.90;42.00
21807;DHT22;11065;50.786;7.840;2023-09-19T10:25:51;25.90;41.60
21807;DHT22;11065;50.786;7.840;2023-09-19T10:28:20;25.80;41.90
21807;DHT22;11065;50.786;7.840;2023-09-19T10:30:51;25.70;42.50
21807;DHT22;11065;50.786;7.840;2023-09-19T10:33:21;25.80;42.80
21807;DHT22;11065;50.786;7.840;2023-09-19T10:35:51;26.00;43.30
21807;DHT22;11065;50.786;7.840;2023-09-19T10:38:23;26.20;43.10
21807;DHT22;11065;50.786;7.840;2023-09-19T10:40:53;26.40;42.60
21807;DHT22;11065;50.786;7.840;2023-09-19T10:43:26;26.70;43.20
21807;DHT22;11065;50.786;7.840;2023-09-19T10:46:03;27.00;42.50
21807;DHT22;11065;50.786;7.840;2023-09-19T10:48:36;27.30;43.50
21807;DHT22;11065;50.786;7.840;2023-09-19T10:51:08;27.60;41.90
21807;DHT22;11065;50.786;7.840;2023-09-19T10:53:45;27.80;41.00
21807;DHT22;11065;50.786;7.840;2023-09-19T10:56:19;28.00;41.20
21807;DHT22;11065;50.786;7.840;2023-09-19T10:58:49;28.10;41.40
21807;DHT22;11065;50.786;7.840;2023-09-19T11:01:18;28.20;41.30
21807;DHT22;11065;50.786;7.840;2023-09-19T11:03:47;28.20;40.70
21807;DHT22;11065;50.786;7.840;2023-09-19T11:06:20;28.30;40.80
21807;DHT22;11065;50.786;7.840;2023-09-19T11:09:00;28.20;39.60
21807;DHT22;11065;50.786;7.840;2023-09-19T11:11:47;28.10;38.90
21807;DHT22;11065;50.786;7.840;2023-09-19T11:14:30;28.00;39.80
21807;DHT22;11065;50.786;7.840;2023-09-19T11:20:20;28.10;40.70
21807;DHT22;11065;50.786;7.840;2023-09-19T11:23:20;28.30;40.10
21807;DHT22;11065;50.786;7.840;2023-09-19T11:25:54;28.40;40.00
21807;DHT22;11065;50.786;7.840;2023-09-19T11:28:30;28.60;40.60
21807;DHT22;11065;50.786;7.840;2023-09-19T11:30:58;28.80;39.40
21807;DHT22;11065;50.786;7.840;2023-09-19T11:33:27;28.90;39.60
21807;DHT22;11065;50.786;7.840;2023-09-19T11:36:02;29.10;40.00
21807;DHT22;11065;50.786;7.840;2023-09-19T11:38:59;29.20;38.50
21807;DHT22;11065;50.786;7.840;2023-09-19T11:41:39;29.10;37.40
21807;DHT22;11065;50.786;7.840;2023-09-19T11:44:33;28.90;37.90
21807;DHT22;11065;50.786;7.840;2023-09-19T11:47:04;28.60;37.30
21807;DHT22;11065;50.786;7.840;2023-09-19T11:49:33;28.40;37.30
21807;DHT22;11065;50.786;7.840;2023-09-19T11:52:04;28.00;37.40
21807;DHT22;11065;50.786;7.840;2023-09-19T11:54:35;27.70;37.40
21807;DHT22;11065;50.786;7.840;2023-09-19T11:57:08;27.40;37.70
21807;DHT22;11065;50.786;7.840;2023-09-19T11:59:39;27.10;37.20
21807;DHT22;11065;50.786;7.840;2023-09-19T12:02:07;26.90;38.10
21807;DHT22;11065;50.786;7.840;2023-09-19T12:04:38;26.80;38.00
21807;DHT22;11065;50.786;7.840;2023-09-19T12:07:09;26.70;38.40
21807;DHT22;11065;50.786;7.840;2023-09-19T12:09:42;26.80;39.00
21807;DHT22;11065;50.786;7.840;2023-09-19T12:12:19;26.90;38.30
21807;DHT22;11065;50.786;7.840;2023-09-19T12:14:48;27.00;38.30
21807;DHT22;11065;50.786;7.840;2023-09-19T12:17:15;27.20;38.90
21807;DHT22;11065;50.786;7.840;2023-09-19T12:19:49;27.40;39.10
21807;DHT22;11065;50.786;7.840;2023-09-19T12:22:18;27.60;38.50
21807;DHT22;11065;50.786;7.840;2023-09-19T12:24:47;27.80;38.30
21807;DHT22;11065;50.786;7.840;2023-09-19T12:27:16;27.90;37.00
21807;DHT22;11065;50.786;7.840;2023-09-19T12:29:45;28.00;37.60
21807;DHT22;11065;50.786;7.840;2023-09-19T12:32:15;28.10;37.70
21807;DHT22;11065;50.786;7.840;2023-09-19T12:34:55;28.30;38.10
21807;DHT22;11065;50.786;7.840;2023-09-19T12:37:23;28.50;37.90
21807;DHT22;11065;50.786;7.840;2023-09-19T12:40:04;28.80;38.50
21807;DHT22;11065;50.786;7.840;2023-09-19T12:42:43;29.00;37.20
21807;DHT22;11065;50.786;7.840;2023-09-19T12:45:12;29.20;38.10
21807;DHT22;11065;50.786;7.840;2023-09-19T12:50:59;29.60;36.80
21807;DHT22;11065;50.786;7.840;2023-09-19T12:53:32;29.70;35.30
21807;DHT22;11065;50.786;7.840;2023-09-19T12:56:03;29.70;35.80
21807;DHT22;11065;50.786;7.840;2023-09-19T12:58:34;29.60;35.00
21807;DHT22;11065;50.786;7.840;2023-09-19T13:01:14;29.60;35.20
21807;DHT22;11065;50.786;7.840;2023-09-19T13:03:42;29.40;33.70
21807;DHT22;11065;50.786;7.840;2023-09-19T13:06:11;29.40;34.60
21807;DHT22;11065;50.786;7.840;2023-09-19T13:08:40;29.40;35.20
21807;DHT22;11065;50.786;7.840;2023-09-19T13:11:10;29.30;35.00
21807;DHT22;11065;50.786;7.840;2023-09-19T13:13:45;29.30;35.30
21807;DHT22;11065;50.786;7.840;2023-09-19T13:16:16;29.40;34.90
21807;DHT22;11065;50.786;7.840;2023-09-19T13:18:50;29.40;35.20
21807;DHT22;11065;50.786;7.840;2023-09-19T13:21:27;29.60;35.30
21807;DHT22;11065;50.786;7.840;2023-09-19T13:24:18;29.70;34.80
21807;DHT22;11065;50.786;7.840;2023-09-19T13:26:44;29.80;35.00
21807;DHT22;11065;50.786;7.840;2023-09-19T13:29:13;29.90;34.00
21807;DHT22;11065;50.786;7.840;2023-09-19T13:31:46;29.80;34.80
21807;DHT22;11065;50.786;7.840;2023-09-19T13:34:14;29.90;34.70
21807;DHT22;11065;50.786;7.840;2023-09-19T13:36:44;30.00;34.80
21807;DHT22;11065;50.786;7.840;2023-09-19T13:39:14;30.10;34.20
21807;DHT22;11065;50.786;7.840;2023-09-19T13:41:44;30.20;34.40
21807;DHT22;11065;50.786;7.840;2023-09-19T13:44:14;30.30;34.30
21807;DHT22;11065;50.786;7.840;2023-09-19T13:46:43;30.30;33.80
21807;DHT22;11065;50.786;7.840;2023-09-19T13:49:13;30.40;34.10
21807;DHT22;11065;50.786;7.840;2023-09-19T13:51:41;30.50;33.80
21807;DHT22;11065;50.786;7.840;2023-09-19T13:54:11;30.50;33.60
21807;DHT22;11065;50.786;7.840;2023-09-19T13:56:39;30.50;33.70
21807;DHT22;11065;50.786;7.840;2023-09-19T13:59:07;30.50;33.80
21807;DHT22;11065;50.786;7.840;2023-09-19T14:01:37;30.50;33.60
21807;DHT22;11065;50.786;7.840;2023-09-19T14:04:06;30.50;33.10
21807;DHT22;11065;50.786;7.840;2023-09-19T14:06:34;30.50;33.50
21807;DHT22;11065;50.786;7.840;2023-09-19T14:09:04;30.50;33.20
21807;DHT22;11065;50.786;7.840;2023-09-19T14:11:34;30.50;33.50
21807;DHT22;11065;50.786;7.840;2023-09-19T14:14:02;30.50;33.00
21807;DHT22;11065;50.786;7.840;2023-09-19T14:16:31;30.40;33.10
21807;DHT22;11065;50.786;7.840;2023-09-19T14:19:01;30.40;32.20
21807;DHT22;11065;50.786;7.840;2023-09-19T14:21:29;30.50;32.50
21807;DHT22;11065;50.786;7.840;2023-09-19T14:23:57;30.30;32.90
21807;DHT22;11065;50.786;7.840;2023-09-19T14:26:25;30.30;32.90
21807;DHT22;11065;50.786;7.840;2023-09-19T14:28:53;30.30;33.10
21807;DHT22;11065;50.786;7.840;2023-09-19T14:31:21;30.30;32.80
21807;DHT22;11065;50.786;7.840;2023-09-19T14:33:53;30.30;33.20
21807;DHT22;11065;50.786;7.840;2023-09-19T14:36:23;30.40;33.00
21807;DHT22;11065;50.786;7.840;2023-09-19T14:38:53;30.40;32.90
21807;DHT22;11065;50.786;7.840;2023-09-19T14:41:21;30.40;32.80
21807;DHT22;11065;50.786;7.840;2023-09-19T14:43:52;30.30;32.10
21807;DHT22;11065;50.786;7.840;2023-09-19T14:46:21;30.20;31.90
21807;DHT22;11065;50.786;7.840;2023-09-19T14:48:51;30.10;32.30
21807;DHT22;11065;50.786;7.840;2023-09-19T14:51:19;30.00;32.30
21807;DHT22;11065;50.786;7.840;2023-09-19T14:53:49;30.00;32.40
21807;DHT22;11065;50.786;7.840;2023-09-19T14:56:17;29.90;32.30
21807;DHT22;11065;50.786;7.840;2023-09-19T14:58:47;29.80;32.30
21807;DHT22;11065;50.786;7.840;2023-09-19T15:01:15;29.70;31.90
21807;DHT22;11065;50.786;7.840;2023-09-19T15:03:43;29.60;32.40
21807;DHT22;11065;50.786;7.840;2023-09-19T15:06:13;29.50;32.20
21807;DHT22;11065;50.786;7.840;2023-09-19T15:08:45;29.40;32.40
21807;DHT22;11065;50.786;7.840;2023-09-19T15:11:16;29.30;32.50
21807;DHT22;11065;50.786;7.840;2023-09-19T15:13:46;29.10;32.30
21807;DHT22;11065;50.786;7.840;2023-09-19T15:16:15;28.90;32.10
21807;DHT22;11065;50.786;7.840;2023-09-19T15:18:46;28.70;32.20
21807;DHT22;11065;50.786;7.840;2023-09-19T15:21:15;28.40;32.30
21807;DHT22;11065;50.786;7.840;2023-09-19T15:23:43;28.30;32.60
21807;DHT22;11065;50.786;7.840;2023-09-19T15:26:14;28.20;32.80
21807;DHT22;11065;50.786;7.840;2023-09-19T15:28:45;28.10;33.10
21807;DHT22;11065;50.786;7.840;2023-09-19T15:31:14;28.10;33.00
21807;DHT22;11065;50.786;7.840;2023-09-19T15:33:43;28.00;32.90
21807;DHT22;11065;50.786;7.840;2023-09-19T15:36:12;28.00;33.00
21807;DHT22;11065;50.786;7.840;2023-09-19T15:39:04;27.90;32.80
21807;DHT22;11065;50.786;7.840;2023-09-19T15:41:36;27.70;32.60
21807;DHT22;11065;50.786;7.840;2023-09-19T15:44:11;27.60;32.80
21807;DHT22;11065;50.786;7.840;2023-09-19T15:46:40;27.60;32.90
21807;DHT22;11065;50.786;7.840;2023-09-19T15:49:08;27.50;32.90
21807;DHT22;11065;50.786;7.840;2023-09-19T15:51:37;27.50;32.70
21807;DHT22;11065;50.786;7.840;2023-09-19T15:54:08;27.40;32.80
21807;DHT22;11065;50.786;7.840;2023-09-19T15:56:37;27.40;32.80
21807;DHT22;11065;50.786;7.840;2023-09-19T15:59:09;27.30;33.10
21807;DHT22;11065;50.786;7.840;2023-09-19T16:01:39;27.30;33.20